Draughon Miller Central Texas Regional Airport
KTPL : now visible

Airfield :











YOU CAN JOIN US ON...

 
LOGIN :

Register | Disclaimer

   EN    FR    IT 

 









Legend :    VFR   Marginal VFR   IFR   Intensive IFR   Very Intensive IFR
Visi :
Ceiling :
>= 8 km
>= 3000ft
5 to 8 km
1000 to 3000 ft
1500m to 5 km
500 to 1000 ft
800 to 1500m
200 to 500 ft
< 800m
< 200 ft
Symbols :   Thunderstorms  Fog  Heavy snow  Heavy precipitations  Wind > 20 kt






- Airport Elevation : 682 ft
- IATA code : TPL


KTPL - Draughon Miller Central Texas Regional

CURRENT METAR :
  • 150951Z AUTO 19005KT 10SM CLR 24/20 A2997 RMK AO2 SLP136 T02390200

EXPIRED METARs :
  • 150851Z AUTO 18005KT 10SM CLR 24/20 A2996 RMK AO2 SLP134 T02440200 55004
  • 150751Z AUTO 18003KT 10SM CLR 24/19 A2996 RMK AO2 SLP132 T02440194
  • 150651Z AUTO 18006KT 10SM CLR 26/19 A2996 RMK AO2 SLP132 T02560194

TAF N/A
KZHU FIR / North America



MET'MAP, your aeronautical weather chart ! - Copyright ORBIFLY December 2007 - Disclaimer

ORBIFLY MET'MAP TEAM :

Programming & Development : Alexandra Zaïnal
Original concept : Baudouin d'Aumeries
Technical & hardware support : Manuel Goepfert
Assistance : Marc-Olivier Méhu




SOURCES & CREDITS :

   NOAA       Earth
Advisory